Time;durP1;ratioP1;P1;durP2;ratioP2;P2;SDS_P1;SDS_P2;PMS_P1;PMS_P2;Temp;Humidity;BMP_temperature;BMP_pressure;BME280_temperature;BME280_humidity;BME280_pressure;Samples;Min_cycle;Max_cycle;Signal;HPM_P1;HPM_P2
2021/12/18 00:02:15;;;;;;;2.28;1.40;;;;;;;6.58;100.00;103208.50;5081000;28;20040;-49
2021/12/18 00:04:40;;;;;;;1.70;1.60;;;;;;;6.57;100.00;103214.72;5069041;28;20389;-51
2021/12/18 00:07:07;;;;;;;0.93;0.93;;;;;;;6.57;100.00;103217.34;5072891;28;20352;-54
2021/12/18 00:09:33;;;;;;;0.88;0.88;;;;;;;6.56;100.00;103211.25;5079210;28;20442;-52
2021/12/18 00:12:00;;;;;;;1.17;1.17;;;;;;;6.57;100.00;103212.94;5076052;28;20043;-55
2021/12/18 00:14:26;;;;;;;2.90;1.30;;;;;;;6.56;100.00;103211.25;5085009;28;20118;-47
2021/12/18 00:16:52;;;;;;;1.13;1.02;;;;;;;6.55;100.00;103213.00;5077279;28;20032;-52
2021/12/18 00:19:23;;;;;;;3.28;1.52;;;;;;;6.56;100.00;103211.25;5085573;28;20040;-50
2021/12/18 00:21:49;;;;;;;2.55;2.35;;;;;;;6.55;100.00;103214.81;5077764;28;20028;-52
2021/12/18 00:24:14;;;;;;;1.55;1.45;;;;;;;6.55;100.00;103214.81;5076396;28;20063;-52
2021/12/18 00:26:40;;;;;;;1.50;1.40;;;;;;;6.54;100.00;103210.50;5071435;28;20482;-53
2021/12/18 00:29:05;;;;;;;1.00;1.00;;;;;;;6.54;100.00;103205.22;5083954;28;20055;-50
2021/12/18 00:31:30;;;;;;;1.23;1.15;;;;;;;6.54;100.00;103211.31;5076594;28;20029;-49
2021/12/18 00:33:56;;;;;;;1.30;1.20;;;;;;;6.53;100.00;103212.28;5074766;28;21063;-50
2021/12/18 00:36:21;;;;;;;2.25;1.55;;;;;;;6.52;100.00;103204.47;5071598;28;20033;-48
2021/12/18 00:38:46;;;;;;;1.02;0.95;;;;;;;6.52;100.00;103204.47;5083316;28;20043;-50
2021/12/18 00:41:16;;;;;;;2.38;1.38;;;;;;;6.51;100.00;103202.78;5082693;28;20369;-52
2021/12/18 00:46:27;;;;;;;2.67;1.42;;;;;;;6.52;100.00;103199.19;5076085;28;20039;-54
2021/12/18 00:48:53;;;;;;;1.95;1.30;;;;;;;6.50;100.00;103191.38;5073947;28;20442;-51
2021/12/18 00:51:18;;;;;;;1.85;1.70;;;;;;;6.51;100.00;103184.34;5079841;28;20032;-49
2021/12/18 00:53:44;;;;;;;1.58;1.45;;;;;;;6.51;100.00;103182.53;5077387;28;20119;-52
2021/12/18 00:56:09;;;;;;;1.25;1.15;;;;;;;6.50;100.00;103178.19;5071965;28;20107;-53
2021/12/18 00:58:34;;;;;;;2.00;1.17;;;;;;;6.50;100.00;103180.81;5083418;28;20063;-54
2021/12/18 01:01:00;;;;;;;1.48;1.38;;;;;;;6.50;100.00;103180.81;5080772;28;20048;-52
2021/12/18 01:03:26;;;;;;;1.55;1.45;;;;;;;6.51;100.00;103184.34;5082025;28;20059;-47
2021/12/18 01:05:51;;;;;;;1.15;1.15;;;;;;;6.51;100.00;103184.34;5074425;28;20063;-53
2021/12/18 01:08:17;;;;;;;2.75;2.47;;;;;;;6.53;100.00;103185.06;5084533;28;20153;-51
2021/12/18 01:11:13;;;;;;;1.17;1.17;;;;;;;6.52;100.00;103191.28;5087379;28;20028;-52
2021/12/18 01:13:49;;;;;;;2.58;1.08;;;;;;;6.51;100.00;103200.16;5083656;28;20131;-53
2021/12/18 01:16:20;;;;;;;2.17;1.50;;;;;;;6.51;100.00;103198.34;5084554;28;20028;-51
2021/12/18 01:24:13;;;;;;;1.50;1.40;;;;;;;6.52;100.00;103209.72;5083625;28;20120;-48
2021/12/18 01:26:39;;;;;;;0.80;0.80;;;;;;;6.52;100.00;103204.47;5081146;28;20454;-54
2021/12/18 01:29:04;;;;;;;3.20;2.13;;;;;;;6.52;100.00;103205.31;5081374;28;20032;-49
2021/12/18 01:31:29;;;;;;;4.10;2.05;;;;;;;6.52;100.00;103207.94;5080089;28;20016;-50
2021/12/18 01:33:55;;;;;;;1.73;1.63;;;;;;;6.52;100.00;103204.47;5077004;28;20032;-50
2021/12/18 01:36:21;;;;;;;1.67;1.58;;;;;;;6.51;100.00;103195.72;5074852;28;20119;-50
2021/12/18 01:38:47;;;;;;;1.83;1.45;;;;;;;6.52;100.00;103199.19;5086814;28;20032;-52
2021/12/18 01:41:14;;;;;;;2.58;1.50;;;;;;;6.51;100.00;103202.78;5084871;28;20805;-49
2021/12/18 01:53:47;;;;;;;2.22;2.03;;;;;;;6.50;100.00;103203.72;5078682;28;20029;-50
2021/12/18 01:56:13;;;;;;;3.55;1.75;;;;;;;6.49;100.00;103204.66;5074246;28;20028;-51
2021/12/18 01:58:38;;;;;;;2.55;1.85;;;;;;;6.48;100.00;103203.81;5080863;28;20080;-52
2021/12/18 02:01:04;;;;;;;1.40;1.30;;;;;;;6.48;100.00;103205.59;5077458;28;20028;-48
2021/12/18 02:03:31;;;;;;;3.92;1.27;;;;;;;6.48;100.00;103205.59;5085468;28;20024;-50
2021/12/18 02:05:57;;;;;;;2.28;2.08;;;;;;;6.47;100.00;103196.84;5072288;28;20040;-53
2021/12/18 02:08:25;;;;;;;3.97;2.03;;;;;;;6.46;100.00;103192.53;5087165;28;20028;-52
2021/12/18 02:10:57;;;;;;;2.08;1.85;;;;;;;6.46;100.00;103199.59;5082545;28;20088;-52
2021/12/18 02:21:21;;;;;;;1.10;1.10;;;;;;;6.45;100.00;103193.44;5075889;28;20039;-50
2021/12/18 02:23:47;;;;;;;1.25;1.15;;;;;;;6.46;100.00;103202.22;5082858;28;20024;-52
2021/12/18 02:26:13;;;;;;;1.40;1.30;;;;;;;6.45;100.00;103204.00;5078839;28;20448;-50
2021/12/18 02:28:42;;;;;;;1.55;1.35;;;;;;;6.47;100.00;103201.28;5086870;28;20036;-50
2021/12/18 02:31:07;;;;;;;1.90;1.60;;;;;;;6.47;100.00;103196.84;5083929;28;20058;-53
2021/12/18 02:33:33;;;;;;;4.00;1.60;;;;;;;6.45;100.00;103196.09;5080192;28;20036;-52
2021/12/18 02:36:01;;;;;;;1.83;1.35;;;;;;;6.46;100.00;103196.97;5078115;28;20177;-49
2021/12/18 02:43:43;;;;;;;2.05;1.95;;;;;;;6.48;100.00;103193.28;5079837;28;20039;-53
2021/12/18 02:46:09;;;;;;;2.65;2.05;;;;;;;6.49;100.00;103194.13;5085587;28;20439;-49
2021/12/18 02:48:40;;;;;;;2.85;2.55;;;;;;;6.49;100.00;103187.06;5086116;28;20497;-50
2021/12/18 02:51:08;;;;;;;1.90;1.80;;;;;;;6.50;100.00;103195.81;5084983;28;20576;-51
2021/12/18 02:53:38;;;;;;;2.05;1.83;;;;;;;6.51;100.00;103192.25;5083380;28;20032;-52
2021/12/18 02:56:08;;;;;;;1.80;1.70;;;;;;;6.51;100.00;103192.25;5072410;28;20047;-50
2021/12/18 02:58:47;;;;;;;2.90;2.30;;;;;;;6.51;100.00;103187.81;5074931;28;20039;-54
2021/12/18 03:01:20;;;;;;;3.00;2.80;;;;;;;6.51;100.00;103182.53;5083053;28;20042;-49
2021/12/18 03:03:47;;;;;;;2.90;2.45;;;;;;;6.50;100.00;103178.19;5078609;28;20032;-47
2021/12/18 03:06:34;;;;;;;2.17;2.08;;;;;;;6.50;100.00;103175.56;5072019;28;20614;-53
2021/12/18 03:27:32;;;;;;;2.35;1.85;;;;;;;6.51;100.00;103179.06;5080991;28;20040;-51
2021/12/18 03:29:58;;;;;;;1.73;1.25;;;;;;;6.50;100.00;103172.91;5077954;28;20040;-54
2021/12/18 03:32:24;;;;;;;3.20;1.48;;;;;;;6.50;100.00;103170.28;5080402;28;20504;-49
2021/12/18 03:34:51;;;;;;;3.65;1.50;;;;;;;6.49;100.00;103168.59;5076811;28;20528;-52
2021/12/18 03:37:16;;;;;;;1.95;1.67;;;;;;;6.50;100.00;103169.44;5072179;28;20021;-51
2021/12/18 03:39:42;;;;;;;2.45;2.25;;;;;;;6.50;100.00;103169.44;5082067;28;20023;-49
2021/12/18 03:42:08;;;;;;;1.50;1.20;;;;;;;6.50;100.00;103169.44;5080944;28;20047;-50
2021/12/18 03:44:34;;;;;;;2.53;2.33;;;;;;;6.49;100.00;103173.03;5079236;28;20402;-49
2021/12/18 03:47:00;;;;;;;1.60;1.30;;;;;;;6.49;100.00;103173.03;5081018;28;20032;-51
2021/12/18 03:49:26;;;;;;;1.75;1.50;;;;;;;6.49;100.00;103175.66;5082623;28;20027;-49
2021/12/18 03:51:51;;;;;;;2.53;1.85;;;;;;;6.48;100.00;103176.59;5080556;28;20041;-53
2021/12/18 03:54:17;;;;;;;2.65;2.28;;;;;;;6.48;100.00;103176.59;5079958;28;20079;-50
2021/12/18 03:56:42;;;;;;;1.75;1.65;;;;;;;6.47;100.00;103170.47;5077935;28;20052;-51
2021/12/18 03:59:08;;;;;;;2.50;1.92;;;;;;;6.49;100.00;103170.41;5077753;28;20078;-53
2021/12/18 04:01:33;;;;;;;4.43;2.55;;;;;;;6.47;100.00;103167.84;5076191;28;20119;-51
2021/12/18 04:03:59;;;;;;;2.75;2.10;;;;;;;6.48;100.00;103164.28;5078098;28;20126;-50
2021/12/18 04:06:24;;;;;;;3.13;2.13;;;;;;;6.48;100.00;103173.97;5082369;28;20396;-50
2021/12/18 04:08:50;;;;;;;2.25;2.03;;;;;;;6.47;100.00;103173.13;5083623;28;20111;-52
2021/12/18 04:11:15;;;;;;;1.92;1.55;;;;;;;6.47;100.00;103177.56;5080470;28;20369;-49
2021/12/18 04:13:44;;;;;;;2.72;1.73;;;;;;;6.47;100.00;103169.66;5082262;28;20024;-52
2021/12/18 04:16:11;;;;;;;2.83;1.98;;;;;;;6.47;100.00;103180.19;5081093;28;20058;-52
2021/12/18 04:18:36;;;;;;;2.58;2.13;;;;;;;6.47;100.00;103180.19;5084084;28;20047;-52
2021/12/18 04:21:02;;;;;;;3.55;2.63;;;;;;;6.44;100.00;103181.22;5080884;28;20032;-51
2021/12/18 04:23:27;;;;;;;3.85;3.45;;;;;;;6.44;100.00;103185.66;5075920;28;20028;-52
2021/12/18 04:25:55;;;;;;;2.72;2.05;;;;;;;6.44;100.00;103177.75;5078382;28;20035;-53
2021/12/18 04:28:20;;;;;;;2.88;1.85;;;;;;;6.42;100.00;103172.56;5078415;28;20042;-54
2021/12/18 04:30:45;;;;;;;3.03;2.28;;;;;;;6.43;100.00;103168.13;5080902;28;20028;-50
2021/12/18 04:33:10;;;;;;;3.92;3.03;;;;;;;6.43;100.00;103178.69;5083925;28;20032;-49
2021/12/18 04:35:36;;;;;;;3.40;2.78;;;;;;;6.43;100.00;103171.66;5076506;28;20548;-53
2021/12/18 04:38:02;;;;;;;3.33;2.85;;;;;;;6.45;100.00;103176.78;5078743;28;20145;-52
2021/12/18 04:40:27;;;;;;;4.38;2.53;;;;;;;6.45;100.00;103175.00;5081218;28;20172;-50
2021/12/18 04:42:54;;;;;;;2.05;1.70;;;;;;;6.46;100.00;103168.81;5077618;28;20043;-52
2021/12/18 04:45:19;;;;;;;3.38;2.47;;;;;;;6.47;100.00;103172.28;5079461;28;20299;-50
2021/12/18 04:47:44;;;;;;;5.03;4.03;;;;;;;6.46;100.00;103175.88;5084151;28;20051;-53
2021/12/18 04:50:10;;;;;;;3.75;3.25;;;;;;;6.47;100.00;103167.00;5082679;28;20032;-51
2021/12/18 04:52:35;;;;;;;4.43;3.60;;;;;;;6.45;100.00;103171.53;5075393;28;20473;-49
2021/12/18 04:55:01;;;;;;;2.88;2.60;;;;;;;6.44;100.00;103165.41;5082695;28;20502;-51
2021/12/18 04:57:26;;;;;;;3.85;2.97;;;;;;;6.45;100.00;103182.91;5074223;28;20036;-52
2021/12/18 04:59:52;;;;;;;4.03;3.17;;;;;;;6.47;100.00;103183.66;5079691;28;20071;-51
2021/12/18 05:02:22;;;;;;;5.05;3.30;;;;;;;6.47;100.00;103172.28;5081692;28;20101;-52
2021/12/18 05:04:47;;;;;;;5.45;3.67;;;;;;;6.47;100.00;103180.19;5084195;28;20119;-48
2021/12/18 05:07:13;;;;;;;5.00;2.88;;;;;;;6.48;100.00;103180.09;5080652;28;20131;-52
2021/12/18 05:09:39;;;;;;;3.95;3.33;;;;;;;6.46;100.00;103176.72;5083783;28;20024;-54
2021/12/18 05:12:05;;;;;;;5.53;3.50;;;;;;;6.45;100.00;103163.63;5078053;28;20044;-51
2021/12/18 05:14:30;;;;;;;6.43;3.95;;;;;;;6.44;100.00;103169.84;5082029;28;20035;-52
2021/12/18 05:16:56;;;;;;;4.38;2.55;;;;;;;6.45;100.00;103174.16;5077286;28;20524;-52
2021/12/18 05:19:21;;;;;;;5.65;3.33;;;;;;;6.43;100.00;103169.00;5074835;28;20515;-53
2021/12/18 05:21:47;;;;;;;4.85;2.90;;;;;;;6.44;100.00;103175.97;5081452;28;20028;-50
2021/12/18 05:24:12;;;;;;;4.70;2.95;;;;;;;6.44;100.00;103183.03;5081972;28;20032;-49
2021/12/18 05:26:37;;;;;;;2.65;2.35;;;;;;;6.43;100.00;103183.94;5073608;28;20115;-49
2021/12/18 05:29:03;;;;;;;2.78;1.85;;;;;;;6.43;100.00;103184.81;5079681;28;20397;-52
2021/12/18 05:31:29;;;;;;;4.50;4.00;;;;;;;6.42;100.00;103175.19;5081629;28;20161;-52
2021/12/18 05:33:59;;;;;;;4.78;2.78;;;;;;;6.42;100.00;103183.09;5083543;28;20039;-52
2021/12/18 05:36:34;;;;;;;5.95;3.80;;;;;;;6.42;100.00;103183.09;5071271;28;20032;-51
2021/12/18 05:39:05;;;;;;;3.75;2.45;;;;;;;6.42;100.00;103191.03;5079526;28;20036;-52
2021/12/18 05:41:31;;;;;;;3.03;2.47;;;;;;;6.41;100.00;103186.69;5077916;28;20020;-48
2021/12/18 05:43:57;;;;;;;3.05;2.72;;;;;;;6.41;100.00;103193.78;5079506;28;20039;-50
2021/12/18 05:46:22;;;;;;;3.05;2.72;;;;;;;6.42;100.00;103190.19;5081577;28;20047;-53
2021/12/18 05:48:48;;;;;;;5.13;3.05;;;;;;;6.41;100.00;103193.78;5081303;28;20060;-52
2021/12/18 05:51:13;;;;;;;2.35;2.03;;;;;;;6.41;100.00;103191.13;5081704;28;20548;-50
2021/12/18 05:53:39;;;;;;;3.58;2.90;;;;;;;6.42;100.00;103187.53;5082599;28;20084;-49
2021/12/18 05:56:04;;;;;;;5.10;2.50;;;;;;;6.42;100.00;103180.47;5082638;28;20028;-50
2021/12/18 05:58:29;;;;;;;4.50;3.45;;;;;;;6.44;100.00;103185.66;5085851;28;20035;-51
2021/12/18 06:00:55;;;;;;;4.32;2.38;;;;;;;6.44;100.00;103185.66;5079653;28;20093;-48
2021/12/18 06:03:20;;;;;;;4.55;3.10;;;;;;;6.43;100.00;103183.94;5082510;28;20028;-52
2021/12/18 06:05:46;;;;;;;5.18;2.70;;;;;;;6.42;100.00;103188.38;5081676;28;20039;-48
2021/12/18 06:08:12;;;;;;;4.30;3.17;;;;;;;6.42;100.00;103188.38;5080011;28;20027;-49
2021/12/18 06:10:38;;;;;;;2.95;2.60;;;;;;;6.43;100.00;103186.59;5085467;28;20085;-51
2021/12/18 06:13:04;;;;;;;3.03;2.10;;;;;;;6.43;100.00;103191.84;5083338;28;20032;-53
2021/12/18 06:15:30;;;;;;;4.32;1.55;;;;;;;6.44;100.00;103186.50;5076712;28;20036;-51
2021/12/18 06:17:57;;;;;;;2.45;2.10;;;;;;;6.45;100.00;103184.69;5073350;28;20029;-50
2021/12/18 06:20:23;;;;;;;2.58;2.38;;;;;;;6.44;100.00;103181.22;5082177;28;20077;-52
2021/12/18 06:22:48;;;;;;;3.63;2.58;;;;;;;6.44;100.00;103178.59;5080181;28;20028;-52
2021/12/18 06:25:14;;;;;;;3.42;2.63;;;;;;;6.44;100.00;103180.38;5081411;28;20145;-50
2021/12/18 06:27:39;;;;;;;3.47;2.67;;;;;;;6.44;100.00;103186.50;5079411;28;20389;-50
2021/12/18 06:30:06;;;;;;;2.80;2.50;;;;;;;6.44;100.00;103183.88;5083498;28;20156;-50
2021/12/18 06:32:31;;;;;;;5.05;3.20;;;;;;;6.45;100.00;103179.44;5083914;28;20475;-51
2021/12/18 06:34:56;;;;;;;3.05;2.47;;;;;;;6.45;100.00;103182.91;5080598;28;20030;-50
2021/12/18 06:37:22;;;;;;;4.03;2.90;;;;;;;6.44;100.00;103173.31;5084214;28;20084;-52
2021/12/18 06:39:47;;;;;;;4.20;2.50;;;;;;;6.44;100.00;103180.38;5072971;28;20031;-55
2021/12/18 06:42:12;;;;;;;2.90;2.58;;;;;;;6.44;100.00;103183.03;5083269;28;20081;-51
2021/12/18 06:44:38;;;;;;;3.92;2.80;;;;;;;6.44;100.00;103180.38;5082913;28;20085;-50
2021/12/18 06:47:03;;;;;;;3.17;2.38;;;;;;;6.42;100.00;103169.94;5079257;28;20111;-49
2021/12/18 06:49:28;;;;;;;3.67;2.65;;;;;;;6.44;100.00;103177.75;5086335;28;20481;-50
2021/12/18 06:51:54;;;;;;;2.42;1.98;;;;;;;6.44;100.00;103180.38;5085280;28;20028;-49
2021/12/18 06:54:19;;;;;;;3.78;3.15;;;;;;;6.44;100.00;103177.75;5075242;28;20680;-51
2021/12/18 06:56:45;;;;;;;5.80;2.38;;;;;;;6.44;100.00;103183.03;5080016;28;20027;-50
2021/12/18 06:59:10;;;;;;;5.90;2.90;;;;;;;6.43;100.00;103189.22;5075558;28;20036;-49
2021/12/18 07:01:36;;;;;;;2.42;2.20;;;;;;;6.44;100.00;103175.97;5076163;28;20028;-47
2021/12/18 07:04:02;;;;;;;2.97;2.35;;;;;;;6.44;100.00;103181.22;5077260;28;20051;-49
2021/12/18 07:06:28;;;;;;;3.50;2.53;;;;;;;6.45;100.00;103195.25;5076299;28;20025;-52
2021/12/18 07:08:54;;;;;;;3.25;2.95;;;;;;;6.45;100.00;103189.97;5085137;28;20396;-49
2021/12/18 07:11:20;;;;;;;2.63;2.15;;;;;;;6.45;100.00;103188.19;5082026;28;20028;-52
2021/12/18 07:13:45;;;;;;;2.92;1.70;;;;;;;6.44;100.00;103180.38;5080092;28;20493;-51
2021/12/18 07:16:11;;;;;;;2.35;1.67;;;;;;;6.45;100.00;103188.19;5083397;28;20150;-51
2021/12/18 07:18:36;;;;;;;2.45;1.88;;;;;;;6.45;100.00;103193.44;5081052;28;20796;-53
2021/12/18 07:21:01;;;;;;;2.53;2.13;;;;;;;6.45;100.00;103189.97;5072940;28;20024;-50
2021/12/18 07:23:27;;;;;;;1.67;1.55;;;;;;;6.45;100.00;103187.34;5081919;28;20465;-49
2021/12/18 07:25:52;;;;;;;2.83;2.42;;;;;;;6.45;100.00;103193.44;5083253;28;20136;-52
2021/12/18 07:28:18;;;;;;;1.92;1.70;;;;;;;6.45;100.00;103184.69;5082267;28;20070;-50
2021/12/18 07:30:43;;;;;;;2.13;1.75;;;;;;;6.44;100.00;103189.13;5077902;28;20496;-53
2021/12/18 07:33:10;;;;;;;1.77;1.63;;;;;;;6.46;100.00;103189.06;5081531;28;20028;-49
2021/12/18 07:35:36;;;;;;;2.22;1.67;;;;;;;6.45;100.00;103192.59;5074554;28;20035;-51
2021/12/18 07:38:02;;;;;;;4.90;2.15;;;;;;;6.45;100.00;103193.44;5081647;28;20556;-48
2021/12/18 07:40:27;;;;;;;3.28;2.80;;;;;;;6.45;100.00;103201.34;5077469;28;20493;-52
2021/12/18 07:42:53;;;;;;;6.22;3.15;;;;;;;6.47;100.00;103194.22;5083806;28;20036;-50
2021/12/18 07:45:18;;;;;;;3.88;2.53;;;;;;;6.48;100.00;103197.69;5077237;28;20119;-47
2021/12/18 07:47:43;;;;;;;3.50;3.00;;;;;;;6.47;100.00;103201.28;5078106;28;20039;-50
2021/12/18 07:50:17;;;;;;;2.88;2.50;;;;;;;6.46;100.00;103208.34;5078633;28;20380;-50
2021/12/18 07:52:43;;;;;;;4.45;3.22;;;;;;;6.45;100.00;103209.25;5081322;28;20535;-49
2021/12/18 07:55:08;;;;;;;3.17;2.83;;;;;;;6.47;100.00;103209.19;5085295;28;20111;-49
2021/12/18 07:57:35;;;;;;;3.15;2.95;;;;;;;6.47;100.00;103210.03;5083463;28;20024;-48
2021/12/18 08:00:00;;;;;;;3.60;3.30;;;;;;;6.47;100.00;103212.66;5085026;28;20499;-50
2021/12/18 08:02:25;;;;;;;3.13;2.70;;;;;;;6.48;100.00;103217.00;5075959;28;20028;-49
2021/12/18 08:04:51;;;;;;;4.13;2.92;;;;;;;6.48;100.00;103218.75;5080047;28;20135;-51
2021/12/18 08:07:16;;;;;;;6.97;2.90;;;;;;;6.49;100.00;103215.22;5075161;28;20111;-51
2021/12/18 08:09:41;;;;;;;4.43;3.10;;;;;;;6.48;100.00;103218.75;5078005;28;20028;-48
2021/12/18 08:12:07;;;;;;;8.82;3.33;;;;;;;6.48;100.00;103219.63;5081503;28;20366;-50
2021/12/18 08:14:32;;;;;;;5.63;3.28;;;;;;;6.48;100.00;103224.03;5079713;28;20028;-51
2021/12/18 08:16:58;;;;;;;6.20;3.20;;;;;;;6.49;100.00;103236.28;5081541;28;20039;-52
2021/12/18 08:19:23;;;;;;;3.83;2.80;;;;;;;6.48;100.00;103237.22;5084165;28;20568;-49
2021/12/18 08:21:48;;;;;;;2.55;2.35;;;;;;;6.49;100.00;103236.28;5071673;28;20076;-51
2021/12/18 08:24:14;;;;;;;3.03;2.47;;;;;;;6.51;100.00;103231.78;5081757;28;20075;-49
2021/12/18 08:26:39;;;;;;;2.47;2.28;;;;;;;6.51;100.00;103232.63;5085860;28;20024;-49
2021/12/18 08:29:04;;;;;;;2.35;1.95;;;;;;;6.51;100.00;103235.25;5079338;28;20473;-52
2021/12/18 08:31:30;;;;;;;1.73;1.63;;;;;;;6.52;100.00;103241.38;5079596;28;20024;-52
2021/12/18 08:33:55;;;;;;;4.60;2.42;;;;;;;6.52;100.00;103239.56;5081238;28;20096;-49
2021/12/18 08:36:20;;;;;;;2.83;2.47;;;;;;;6.52;100.00;103231.66;5079328;28;20031;-52
2021/12/18 08:38:46;;;;;;;2.70;2.15;;;;;;;6.53;100.00;103233.38;5085325;28;20545;-50
2021/12/18 08:41:11;;;;;;;2.13;1.92;;;;;;;6.54;100.00;103228.94;5075900;28;20028;-51
2021/12/18 08:43:37;;;;;;;3.05;1.98;;;;;;;6.55;100.00;103239.38;5077356;28;20032;-51
2021/12/18 08:46:02;;;;;;;2.90;2.22;;;;;;;6.53;100.00;103225.47;5075220;28;20386;-49
2021/12/18 08:48:27;;;;;;;3.40;2.30;;;;;;;6.57;100.00;103236.66;5080509;28;20032;-50
2021/12/18 08:50:53;;;;;;;2.63;1.98;;;;;;;6.57;100.00;103228.75;5074816;28;20500;-48
2021/12/18 08:53:18;;;;;;;2.40;2.20;;;;;;;6.58;100.00;103225.16;5078619;28;20431;-52
2021/12/18 08:55:44;;;;;;;5.72;2.92;;;;;;;6.59;100.00;103232.13;5077730;28;20032;-50
2021/12/18 08:58:14;;;;;;;3.60;2.90;;;;;;;6.59;100.00;103228.66;5080356;28;20036;-51
2021/12/18 09:00:40;;;;;;;3.63;2.88;;;;;;;6.58;100.00;103230.41;5080648;28;20064;-51
2021/12/18 09:03:05;;;;;;;4.32;3.38;;;;;;;6.58;100.00;103227.78;5077887;28;20059;-52
2021/12/18 09:05:31;;;;;;;6.35;3.10;;;;;;;6.61;100.00;103234.66;5068426;28;20532;-48
2021/12/18 09:07:57;;;;;;;3.40;2.13;;;;;;;6.62;100.00;103225.81;5069250;28;20043;-49
2021/12/18 09:10:23;;;;;;;10.27;3.22;;;;;;;6.61;100.00;103230.25;5075546;28;20038;-52
2021/12/18 09:12:49;;;;;;;3.75;3.05;;;;;;;6.63;100.00;103228.34;5075154;28;20053;-50
2021/12/18 09:15:15;;;;;;;3.00;2.65;;;;;;;6.64;100.00;103218.66;5075282;28;20036;-53
2021/12/18 09:17:40;;;;;;;4.30;3.47;;;;;;;6.65;100.00;103215.06;5078388;28;20029;-53
2021/12/18 09:20:06;;;;;;;3.60;2.42;;;;;;;6.65;100.00;103223.81;5075098;28;20036;-50
2021/12/18 09:22:32;;;;;;;4.05;3.42;;;;;;;6.66;100.00;103217.63;5074378;28;20063;-50
2021/12/18 09:24:59;;;;;;;2.58;2.30;;;;;;;6.67;100.00;103221.94;5077263;28;20043;-52
2021/12/18 09:27:25;;;;;;;2.78;2.53;;;;;;;6.69;100.00;103220.06;5076731;28;20037;-51
2021/12/18 09:29:51;;;;;;;2.42;2.22;;;;;;;6.71;100.00;103223.44;5078596;28;20024;-47
2021/12/18 09:32:16;;;;;;;3.92;2.90;;;;;;;6.72;100.00;103225.13;5084533;28;20471;-52
2021/12/18 09:34:42;;;;;;;5.03;2.92;;;;;;;6.75;100.00;103222.28;5078139;28;20031;-49
2021/12/18 09:37:07;;;;;;;4.40;4.00;;;;;;;6.75;100.00;103222.28;5081534;28;20538;-50
2021/12/18 09:39:33;;;;;;;4.32;3.42;;;;;;;6.76;100.00;103224.00;5069349;28;20036;-55
2021/12/18 09:41:59;;;;;;;3.08;2.65;;;;;;;6.77;100.00;103227.47;5081418;28;20032;-48
2021/12/18 09:44:27;;;;;;;2.90;2.70;;;;;;;6.83;100.00;103228.88;5079954;28;20032;-50
2021/12/18 09:46:52;;;;;;;4.00;2.30;;;;;;;6.83;100.00;103227.06;5075165;28;20036;-50
2021/12/18 09:49:18;;;;;;;2.65;2.45;;;;;;;6.85;100.00;103226.97;5080039;28;20044;-48
2021/12/18 09:51:44;;;;;;;2.60;2.40;;;;;;;6.88;100.00;103226.78;5078896;28;20097;-48
2021/12/18 09:54:09;;;;;;;2.30;2.10;;;;;;;6.88;100.00;103232.06;5082106;28;20032;-49
2021/12/18 09:56:35;;;;;;;3.15;2.63;;;;;;;6.90;100.00;103233.66;5085005;28;20848;-49
2021/12/18 09:59:00;;;;;;;2.88;2.42;;;;;;;6.92;100.00;103237.03;5084174;28;20123;-49
2021/12/18 10:01:26;;;;;;;3.17;2.90;;;;;;;6.95;100.00;103233.34;5079468;28;20036;-49
2021/12/18 10:03:58;;;;;;;2.63;2.33;;;;;;;6.99;100.00;103240.09;5073074;28;20048;-50
2021/12/18 10:06:40;;;;;;;3.13;2.83;;;;;;;6.99;100.00;103237.47;5080672;28;20024;-53
2021/12/18 10:09:12;;;;;;;2.20;2.08;;;;;;;6.99;100.00;103240.94;5080041;28;20121;-52
2021/12/18 10:11:45;;;;;;;5.00;2.75;;;;;;;7.01;100.00;103240.84;5078898;28;20032;-51
2021/12/18 10:14:11;;;;;;;2.50;2.30;;;;;;;7.01;100.00;103230.31;5077678;28;20122;-50
2021/12/18 10:16:45;;;;;;;2.75;2.50;;;;;;;7.05;100.00;103233.56;5077531;28;20028;-49
2021/12/18 10:19:25;;;;;;;4.05;3.25;;;;;;;7.06;100.00;103233.47;5077522;28;20028;-52
2021/12/18 10:22:03;;;;;;;5.13;4.10;;;;;;;7.05;100.00;103229.16;5067812;28;20569;-49
2021/12/18 10:24:30;;;;;;;3.17;2.90;;;;;;;7.07;100.00;103229.88;5074168;28;20067;-52
2021/12/18 10:26:56;;;;;;;3.53;3.22;;;;;;;7.09;100.00;103241.19;5072692;28;20043;-48
2021/12/18 10:29:35;;;;;;;5.30;3.85;;;;;;;7.11;100.00;103234.03;5081921;28;20028;-47
2021/12/18 10:32:12;;;;;;;4.97;2.53;;;;;;;7.12;100.00;103240.97;5071688;28;20028;-48
2021/12/18 10:34:40;;;;;;;3.88;3.22;;;;;;;7.15;100.00;103235.53;5078637;28;20043;-50
2021/12/18 10:37:11;;;;;;;4.05;3.00;;;;;;;7.17;100.00;103230.97;5073129;28;20036;-50
2021/12/18 10:39:58;;;;;;;5.07;3.95;;;;;;;7.20;100.00;103227.28;5082367;28;20035;-47
2021/12/18 10:42:23;;;;;;;3.30;2.90;;;;;;;7.21;100.00;103224.56;5067989;28;20043;-49
2021/12/18 10:45:06;;;;;;;3.58;3.15;;;;;;;7.21;100.00;103232.47;5077836;28;20035;-51
2021/12/18 10:48:02;;;;;;;4.68;3.13;;;;;;;7.22;100.00;103234.16;5080701;28;20510;-49
2021/12/18 10:50:29;;;;;;;2.90;2.42;;;;;;;7.24;100.00;103226.16;5073607;28;20067;-50
2021/12/18 10:53:14;;;;;;;4.80;2.83;;;;;;;7.30;100.00;103235.44;5083142;28;20030;-47
2021/12/18 10:55:55;;;;;;;4.57;3.10;;;;;;;7.28;100.00;103227.66;5082268;28;20024;-47
2021/12/18 10:58:25;;;;;;;5.22;3.42;;;;;;;7.28;100.00;103239.97;5080106;28;20539;-50
2021/12/18 11:00:59;;;;;;;3.22;2.75;;;;;;;7.26;100.00;103233.97;5077066;28;20043;-50
2021/12/18 11:03:37;;;;;;;3.38;2.75;;;;;;;7.21;100.00;103235.13;5075128;28;20036;-50
2021/12/18 11:06:11;;;;;;;2.63;2.33;;;;;;;7.20;100.00;103225.53;5075628;28;20473;-50
2021/12/18 11:08:58;;;;;;;2.75;2.30;;;;;;;7.26;100.00;103232.19;5078341;28;20028;-48
2021/12/18 11:14:11;;;;;;;4.22;3.83;;;;;;;7.32;100.00;103220.34;5077679;28;20055;-48
2021/12/18 11:16:38;;;;;;;2.22;2.03;;;;;;;7.36;100.00;103227.13;5080911;28;20032;-52
2021/12/18 11:19:12;;;;;;;2.88;2.55;;;;;;;7.35;100.00;103228.91;5078827;28;20033;-49
2021/12/18 11:21:40;;;;;;;2.58;2.25;;;;;;;7.36;100.00;103221.84;5075003;28;20024;-48
2021/12/18 11:24:07;;;;;;;2.28;2.08;;;;;;;7.34;100.00;103219.31;5077996;28;20645;-50
2021/12/18 11:26:41;;;;;;;3.83;2.42;;;;;;;7.36;100.00;103211.31;5076962;28;20381;-49
2021/12/18 11:29:13;;;;;;;2.97;2.28;;;;;;;7.37;100.00;103223.53;5080852;28;20461;-50
2021/12/18 11:31:41;;;;;;;2.67;2.25;;;;;;;7.37;100.00;103219.09;5070782;28;20028;-49
2021/12/18 11:34:06;;;;;;;5.18;2.47;;;;;;;7.37;100.00;103223.53;5072849;28;20028;-49
2021/12/18 11:36:33;;;;;;;3.42;2.80;;;;;;;7.36;100.00;103214.78;5080607;28;20084;-52
2021/12/18 11:38:59;;;;;;;4.40;3.20;;;;;;;7.40;100.00;103212.75;5079805;28;20028;-50
2021/12/18 11:41:25;;;;;;;4.25;2.85;;;;;;;7.41;100.00;103211.84;5074836;28;20043;-50
2021/12/18 11:43:51;;;;;;;2.72;1.98;;;;;;;7.42;100.00;103216.16;5082202;28;20028;-51
2021/12/18 11:46:37;;;;;;;2.55;2.17;;;;;;;7.43;100.00;103220.47;5082972;28;20051;-52
2021/12/18 11:49:11;;;;;;;2.50;2.30;;;;;;;7.45;100.00;103215.94;5078134;28;20109;-51
2021/12/18 11:51:37;;;;;;;3.20;2.30;;;;;;;7.47;100.00;103207.94;5076985;28;20051;-51
2021/12/18 11:54:06;;;;;;;3.28;2.97;;;;;;;7.49;100.00;103209.53;5081688;28;20115;-52
2021/12/18 11:56:49;;;;;;;3.30;3.03;;;;;;;7.43;100.00;103207.28;5072740;28;20059;-51
2021/12/18 11:59:34;;;;;;;4.43;2.15;;;;;;;7.48;100.00;103199.88;5073052;28;20138;-50
2021/12/18 12:01:59;;;;;;;2.78;1.90;;;;;;;7.52;100.00;103201.38;5073489;28;20463;-49
2021/12/18 12:04:25;;;;;;;5.40;2.80;;;;;;;7.54;100.00;103196.84;5072456;28;20115;-51
2021/12/18 12:06:50;;;;;;;2.38;1.95;;;;;;;7.59;100.00;103191.22;5080433;28;20028;-50
2021/12/18 12:09:23;;;;;;;2.05;1.48;;;;;;;7.64;100.00;103197.91;5079918;28;20505;-48
2021/12/18 12:11:54;;;;;;;2.78;2.17;;;;;;;7.69;100.00;103197.56;5073342;28;20119;-51
2021/12/18 12:14:23;;;;;;;2.20;1.90;;;;;;;7.69;100.00;103184.38;5078211;28;20464;-49
2021/12/18 12:16:48;;;;;;;2.60;2.20;;;;;;;7.68;100.00;103182.69;5079559;28;20032;-48
2021/12/18 12:19:14;;;;;;;3.75;3.03;;;;;;;7.71;100.00;103186.91;5067152;28;20543;-48